Time;durP1;ratioP1;P1;durP2;ratioP2;P2;SDS_P1;SDS_P2;PMS_P1;PMS_P2;Temp;Humidity;BMP_temperature;BMP_pressure;BME280_temperature;BME280_humidity;BME280_pressure;Samples;Min_cycle;Max_cycle;Signal;HPM_P1;HPM_P2
2023/03/05 00:01:33;;;;;;;9.30;2.50;;;3.80;99.90;;;;;;5065568;28;20132;-71
2023/03/05 00:04:00;;;;;;;4.67;1.93;;;3.80;99.90;;;;;;5073897;28;20071;-70
2023/03/05 00:06:28;;;;;;;4.30;2.00;;;3.80;99.90;;;;;;5074652;28;20044;-70
2023/03/05 00:08:55;;;;;;;6.00;2.13;;;3.80;99.90;;;;;;5066258;28;20064;-70
2023/03/05 00:11:21;;;;;;;8.27;2.23;;;3.80;99.90;;;;;;5066871;28;20051;-70
2023/03/05 00:13:50;;;;;;;7.63;2.00;;;3.70;99.90;;;;;;5075206;28;20059;-70
2023/03/05 00:16:16;;;;;;;7.83;2.40;;;3.80;99.90;;;;;;5068299;28;20044;-71
2023/03/05 00:18:43;;;;;;;6.73;2.23;;;3.70;99.90;;;;;;5065466;28;20114;-70
2023/03/05 00:21:22;;;;;;;5.80;1.80;;;3.70;99.90;;;;;;5064883;28;20060;-71
2023/03/05 00:23:49;;;;;;;7.13;1.93;;;3.70;99.90;;;;;;5041396;28;20045;-70
2023/03/05 00:26:20;;;;;;;4.20;1.80;;;3.70;99.90;;;;;;5065155;28;20037;-71
2023/03/05 00:28:48;;;;;;;6.53;2.00;;;3.70;99.90;;;;;;5048442;28;20044;-71
2023/03/05 00:31:16;;;;;;;6.43;1.50;;;3.70;99.90;;;;;;5040535;28;20053;-70
2023/03/05 00:33:42;;;;;;;5.07;2.00;;;3.70;99.90;;;;;;5068440;28;20049;-70
2023/03/05 00:36:09;;;;;;;7.30;1.90;;;3.70;99.90;;;;;;5055415;28;20123;-71
2023/03/05 00:38:34;;;;;;;4.93;1.73;;;3.70;99.90;;;;;;5046737;28;20071;-71
2023/03/05 00:41:00;;;;;;;6.27;1.90;;;3.70;99.90;;;;;;5040931;28;20053;-70
2023/03/05 00:43:27;;;;;;;6.40;1.90;;;3.70;99.90;;;;;;5074418;28;20041;-71
2023/03/05 00:45:53;;;;;;;5.53;1.90;;;3.70;99.90;;;;;;5070886;28;20052;-70
2023/03/05 00:48:18;;;;;;;3.97;1.70;;;3.60;99.90;;;;;;5073849;28;20055;-70
2023/03/05 00:50:44;;;;;;;6.70;1.80;;;3.70;99.90;;;;;;5063790;28;20044;-70
2023/03/05 00:53:10;;;;;;;5.20;1.67;;;3.70;99.90;;;;;;5031651;28;20052;-70
2023/03/05 00:55:36;;;;;;;6.00;2.10;;;3.70;99.90;;;;;;5049640;28;20055;-70
2023/03/05 00:58:02;;;;;;;7.60;2.03;;;3.70;99.90;;;;;;5073574;28;20048;-70
2023/03/05 01:00:28;;;;;;;5.10;1.60;;;3.70;99.90;;;;;;5064810;28;20049;-71
2023/03/05 01:02:54;;;;;;;6.23;2.47;;;3.70;99.90;;;;;;5051141;28;20049;-70
2023/03/05 01:05:20;;;;;;;5.20;1.93;;;3.70;99.90;;;;;;5074097;28;20094;-70
2023/03/05 01:07:45;;;;;;;6.77;2.17;;;3.70;99.90;;;;;;5064848;28;20041;-70
2023/03/05 01:10:12;;;;;;;2.97;1.20;;;3.60;99.90;;;;;;5053013;28;20048;-70
2023/03/05 01:12:38;;;;;;;5.07;1.93;;;3.60;99.90;;;;;;5063897;28;20100;-71
2023/03/05 01:15:05;;;;;;;8.27;2.10;;;3.60;99.90;;;;;;5054310;28;20072;-70
2023/03/05 01:17:31;;;;;;;5.27;1.70;;;3.60;99.90;;;;;;5047648;28;20490;-71
2023/03/05 01:19:56;;;;;;;9.03;1.70;;;3.60;99.90;;;;;;5064592;28;20060;-70
2023/03/05 01:22:22;;;;;;;7.30;2.03;;;3.60;99.90;;;;;;5031417;28;20049;-71
2023/03/05 01:24:48;;;;;;;7.03;1.50;;;3.60;99.90;;;;;;5073009;28;20203;-70
2023/03/05 01:27:14;;;;;;;6.20;1.50;;;3.60;99.90;;;;;;5058295;28;20056;-70
2023/03/05 01:29:39;;;;;;;4.23;1.37;;;3.60;99.90;;;;;;5069357;28;20048;-70
2023/03/05 01:32:05;;;;;;;3.93;1.80;;;3.60;99.90;;;;;;5073216;28;20099;-70
2023/03/05 01:34:31;;;;;;;6.60;1.77;;;3.60;99.90;;;;;;5073842;28;20489;-70
2023/03/05 01:36:57;;;;;;;4.90;2.00;;;3.60;99.90;;;;;;5066934;28;20115;-70
2023/03/05 01:39:22;;;;;;;4.90;1.50;;;3.60;99.90;;;;;;5068345;28;20097;-70
2023/03/05 01:41:48;;;;;;;5.77;1.70;;;3.60;99.90;;;;;;5057693;28;20057;-71
2023/03/05 01:44:22;;;;;;;7.67;2.53;;;3.50;99.90;;;;;;5042176;28;20053;-70
2023/03/05 01:46:47;;;;;;;5.87;1.60;;;3.50;99.90;;;;;;5065552;28;20056;-70
2023/03/05 01:49:13;;;;;;;5.17;1.87;;;3.50;99.90;;;;;;5043829;28;20041;-71
2023/03/05 01:51:49;;;;;;;5.03;1.60;;;3.50;99.90;;;;;;5050603;28;20099;-70
2023/03/05 01:54:18;;;;;;;6.27;1.67;;;3.50;99.90;;;;;;5062307;28;20052;-70
2023/03/05 01:56:46;;;;;;;5.90;1.60;;;3.50;99.90;;;;;;5050262;28;20053;-70
2023/03/05 01:59:13;;;;;;;6.40;1.87;;;3.40;99.90;;;;;;5065167;28;20572;-70
2023/03/05 02:01:42;;;;;;;6.73;1.83;;;3.40;99.90;;;;;;5025620;28;20060;-70
2023/03/05 02:04:10;;;;;;;7.03;1.80;;;3.40;99.90;;;;;;5062230;28;20067;-70
2023/03/05 02:06:38;;;;;;;5.60;2.20;;;3.40;99.90;;;;;;5069664;28;20048;-70
2023/03/05 02:09:04;;;;;;;5.57;1.80;;;3.30;99.90;;;;;;5041680;28;20081;-71
2023/03/05 02:11:30;;;;;;;7.00;2.17;;;3.30;99.90;;;;;;5045036;28;20052;-70
2023/03/05 02:13:57;;;;;;;4.73;2.20;;;3.20;99.90;;;;;;5055804;28;20051;-71
2023/03/05 02:16:23;;;;;;;5.63;2.17;;;3.20;99.90;;;;;;5063838;28;20083;-71
2023/03/05 02:18:48;;;;;;;6.10;1.67;;;3.20;99.90;;;;;;5030411;28;20044;-71
2023/03/05 02:21:27;;;;;;;7.03;2.43;;;3.20;99.90;;;;;;5030628;28;20068;-70
2023/03/05 02:23:53;;;;;;;4.20;1.80;;;3.10;99.90;;;;;;5063442;28;20044;-70
2023/03/05 02:26:18;;;;;;;8.50;2.37;;;3.10;99.90;;;;;;5048034;28;20117;-69
2023/03/05 02:28:52;;;;;;;9.03;1.90;;;3.10;99.90;;;;;;5042861;28;20049;-72
2023/03/05 02:31:20;;;;;;;6.80;2.10;;;3.00;99.90;;;;;;5068116;28;20056;-73
2023/03/05 02:33:47;;;;;;;7.23;2.27;;;3.00;99.90;;;;;;5059763;28;20063;-73
2023/03/05 02:36:14;;;;;;;5.07;2.03;;;3.00;99.90;;;;;;5066374;28;20076;-73
2023/03/05 02:38:40;;;;;;;10.10;2.00;;;2.90;99.90;;;;;;5054812;28;20116;-73
2023/03/05 02:41:06;;;;;;;6.27;2.00;;;2.90;99.90;;;;;;5071821;28;20075;-73
2023/03/05 02:43:32;;;;;;;6.40;2.20;;;2.90;99.90;;;;;;5054430;28;20049;-73
2023/03/05 02:45:58;;;;;;;6.20;1.97;;;2.90;99.90;;;;;;5071547;28;20043;-71
2023/03/05 02:48:23;;;;;;;7.73;2.20;;;2.80;99.90;;;;;;5073836;28;20068;-70
2023/03/05 02:50:49;;;;;;;6.37;2.07;;;2.90;99.90;;;;;;5075975;28;20487;-70
2023/03/05 02:53:15;;;;;;;6.70;2.03;;;2.80;99.90;;;;;;5074468;28;20059;-70
2023/03/05 02:55:41;;;;;;;5.67;2.00;;;2.80;99.90;;;;;;5075387;28;20076;-70
2023/03/05 02:58:06;;;;;;;6.77;2.17;;;2.80;99.90;;;;;;5070818;28;20143;-70
2023/03/05 03:00:32;;;;;;;7.57;2.43;;;2.80;99.90;;;;;;5075235;28;20036;-70
2023/03/05 03:02:58;;;;;;;6.87;2.20;;;2.80;99.90;;;;;;5058608;28;20053;-69
2023/03/05 03:05:24;;;;;;;5.17;1.90;;;2.80;99.90;;;;;;5074428;28;20064;-70
2023/03/05 03:07:50;;;;;;;5.10;1.90;;;2.80;99.90;;;;;;5057471;28;20102;-70
2023/03/05 03:10:16;;;;;;;6.07;2.00;;;2.80;99.90;;;;;;5056798;28;20032;-71
2023/03/05 03:12:43;;;;;;;12.27;2.30;;;2.80;99.90;;;;;;5074696;28;20100;-70
2023/03/05 03:15:12;;;;;;;4.70;2.27;;;2.90;99.90;;;;;;5057344;28;20051;-73
2023/03/05 03:17:38;;;;;;;9.47;2.53;;;2.90;99.90;;;;;;5057901;28;20250;-72
2023/03/05 03:20:06;;;;;;;9.20;2.87;;;2.80;99.90;;;;;;5058101;28;20552;-73
2023/03/05 03:22:32;;;;;;;5.97;2.53;;;2.90;99.90;;;;;;5075346;28;20178;-73
2023/03/05 03:24:57;;;;;;;10.20;2.40;;;2.90;99.90;;;;;;5042202;28;20076;-73
2023/03/05 03:27:23;;;;;;;5.43;2.27;;;2.90;99.90;;;;;;5056978;28;20055;-73
2023/03/05 03:29:49;;;;;;;6.10;2.20;;;2.90;99.90;;;;;;5075997;28;20036;-73
2023/03/05 03:32:14;;;;;;;7.03;1.90;;;2.80;99.90;;;;;;5057517;28;20045;-73
2023/03/05 03:34:40;;;;;;;6.03;1.90;;;2.90;99.90;;;;;;5074134;28;20044;-73
2023/03/05 03:37:07;;;;;;;9.80;2.10;;;2.90;99.90;;;;;;5057947;28;20055;-73
2023/03/05 03:39:32;;;;;;;5.47;2.17;;;2.90;99.90;;;;;;5057177;28;20044;-73
2023/03/05 03:41:58;;;;;;;8.33;1.90;;;2.90;99.90;;;;;;5023763;28;20048;-73
2023/03/05 03:44:24;;;;;;;8.57;2.47;;;2.90;99.90;;;;;;5073742;28;20076;-73
2023/03/05 03:46:51;;;;;;;6.50;2.20;;;2.90;99.90;;;;;;5041755;28;20052;-72
2023/03/05 03:49:20;;;;;;;6.33;1.80;;;2.90;99.90;;;;;;5057073;28;20053;-73
2023/03/05 03:51:46;;;;;;;6.50;2.27;;;2.90;99.90;;;;;;5075408;28;20040;-73
2023/03/05 03:54:13;;;;;;;5.40;2.10;;;2.90;99.90;;;;;;5057376;28;20056;-73
2023/03/05 03:56:39;;;;;;;8.83;2.20;;;2.80;99.90;;;;;;5075108;28;20041;-74
2023/03/05 03:59:05;;;;;;;5.03;2.03;;;2.90;99.90;;;;;;5038932;28;20066;-70
2023/03/05 04:01:30;;;;;;;5.30;1.87;;;2.80;99.90;;;;;;5039714;28;20132;-71
2023/03/05 04:03:56;;;;;;;6.47;1.70;;;2.90;99.90;;;;;;5075711;28;20079;-71
2023/03/05 04:06:22;;;;;;;7.67;2.37;;;2.90;99.90;;;;;;5074651;28;20071;-71
2023/03/05 04:08:47;;;;;;;9.20;2.77;;;2.90;99.90;;;;;;5040301;28;20106;-70
2023/03/05 04:11:14;;;;;;;6.83;2.13;;;2.80;99.90;;;;;;5073080;28;20054;-70
2023/03/05 04:13:40;;;;;;;4.43;2.00;;;2.80;99.90;;;;;;5073840;28;20119;-70
2023/03/05 04:16:06;;;;;;;6.10;1.70;;;2.80;99.90;;;;;;5074566;28;20076;-71
2023/03/05 04:18:32;;;;;;;6.07;1.90;;;2.80;99.90;;;;;;5073503;28;20049;-70
2023/03/05 04:20:58;;;;;;;4.97;2.07;;;2.80;99.90;;;;;;5073819;28;20043;-71
2023/03/05 04:23:24;;;;;;;6.30;1.80;;;2.80;99.90;;;;;;5072880;28;20078;-70
2023/03/05 04:25:49;;;;;;;9.40;2.03;;;2.70;99.90;;;;;;5073855;28;20079;-71
2023/03/05 04:28:16;;;;;;;4.67;1.70;;;2.70;99.90;;;;;;5074926;28;20399;-71
2023/03/05 04:30:42;;;;;;;5.93;1.83;;;2.70;99.90;;;;;;5071836;28;20048;-70
2023/03/05 04:33:08;;;;;;;4.13;2.00;;;2.70;99.90;;;;;;5056870;28;20083;-69
2023/03/05 04:35:33;;;;;;;5.93;2.17;;;2.70;99.90;;;;;;5074918;28;20586;-70
2023/03/05 04:37:59;;;;;;;5.00;1.73;;;2.70;99.90;;;;;;5095350;28;20058;-71
2023/03/05 04:40:25;;;;;;;5.23;2.43;;;2.70;99.90;;;;;;5055748;28;20055;-70
2023/03/05 04:42:51;;;;;;;4.90;2.50;;;2.70;99.90;;;;;;5052957;28;20044;-70
2023/03/05 04:45:16;;;;;;;7.87;2.50;;;2.70;99.90;;;;;;5056471;28;20194;-70
2023/03/05 04:47:43;;;;;;;5.30;2.03;;;2.70;99.90;;;;;;5064884;28;20040;-70
2023/03/05 04:50:10;;;;;;;6.20;2.20;;;2.70;99.90;;;;;;5076003;28;20047;-70
2023/03/05 04:52:39;;;;;;;4.80;2.10;;;2.70;99.90;;;;;;5055743;28;20053;-70
2023/03/05 04:55:05;;;;;;;5.40;1.90;;;2.80;99.90;;;;;;5075026;28;20052;-70
2023/03/05 04:57:30;;;;;;;5.07;1.80;;;2.80;99.90;;;;;;5055805;28;20057;-71
2023/03/05 04:59:56;;;;;;;3.90;1.70;;;2.80;99.90;;;;;;5042391;28;20047;-70
2023/03/05 05:02:22;;;;;;;3.63;1.93;;;2.80;99.90;;;;;;5055847;28;20116;-70
2023/03/05 05:04:52;;;;;;;4.77;1.70;;;2.70;99.90;;;;;;5038931;28;20080;-70
2023/03/05 05:07:17;;;;;;;4.57;1.87;;;2.70;99.90;;;;;;5072450;28;20098;-70
2023/03/05 05:09:43;;;;;;;6.27;1.73;;;2.80;99.90;;;;;;5056272;28;20119;-70
2023/03/05 05:12:09;;;;;;;4.27;1.67;;;2.80;99.90;;;;;;5055411;28;20051;-70
2023/03/05 05:14:35;;;;;;;5.17;2.00;;;2.70;99.90;;;;;;5058248;28;20048;-70
2023/03/05 05:17:03;;;;;;;8.03;1.80;;;2.70;99.90;;;;;;5072679;28;20041;-71
2023/03/05 05:19:31;;;;;;;3.80;1.70;;;2.80;99.90;;;;;;5057321;28;20044;-70
2023/03/05 05:21:57;;;;;;;7.43;2.00;;;2.70;99.90;;;;;;5093960;28;20036;-71
2023/03/05 05:24:22;;;;;;;7.00;1.80;;;2.70;99.90;;;;;;5058950;28;20151;-71
2023/03/05 05:26:48;;;;;;;7.23;1.60;;;2.80;99.90;;;;;;5074804;28;20146;-71
2023/03/05 05:29:14;;;;;;;4.30;1.70;;;2.80;99.90;;;;;;5059260;28;20052;-71
2023/03/05 05:31:39;;;;;;;7.70;1.90;;;2.70;99.90;;;;;;5056963;28;20036;-71
2023/03/05 05:34:05;;;;;;;4.70;1.50;;;2.70;99.90;;;;;;5059140;28;20061;-71
2023/03/05 05:36:31;;;;;;;6.30;1.70;;;2.80;99.90;;;;;;5038684;28;20060;-71
2023/03/05 05:38:57;;;;;;;5.83;1.70;;;2.80;99.90;;;;;;5055565;28;20157;-71
2023/03/05 05:41:22;;;;;;;5.60;1.60;;;2.70;99.90;;;;;;5058443;28;20071;-71
2023/03/05 05:43:49;;;;;;;6.13;1.60;;;2.80;99.90;;;;;;5071172;28;20135;-71
2023/03/05 05:46:17;;;;;;;3.57;1.47;;;2.70;99.90;;;;;;5065754;28;20097;-71
2023/03/05 05:48:43;;;;;;;4.73;1.60;;;2.70;99.90;;;;;;5093197;28;20055;-71
2023/03/05 05:51:13;;;;;;;4.70;1.50;;;2.70;99.90;;;;;;5075581;28;20048;-72
2023/03/05 05:53:40;;;;;;;3.33;1.60;;;2.70;99.90;;;;;;5071217;28;20086;-71
2023/03/05 05:56:07;;;;;;;3.80;1.23;;;2.70;99.90;;;;;;5058385;28;20043;-71
2023/03/05 05:58:34;;;;;;;3.67;1.30;;;2.70;99.90;;;;;;5075369;28;20040;-71
2023/03/05 06:01:00;;;;;;;4.13;1.47;;;2.70;99.90;;;;;;5058449;28;20036;-71
2023/03/05 06:03:26;;;;;;;2.63;1.10;;;2.60;99.90;;;;;;5056356;28;20048;-71
2023/03/05 06:05:52;;;;;;;4.00;1.07;;;2.60;99.90;;;;;;5031148;28;20074;-71
2023/03/05 06:08:18;;;;;;;3.80;1.33;;;2.50;99.90;;;;;;5072182;28;20072;-71
2023/03/05 06:10:43;;;;;;;2.20;1.10;;;2.50;99.90;;;;;;5072089;28;20035;-71
2023/03/05 06:13:09;;;;;;;3.33;1.30;;;2.50;99.90;;;;;;5071433;28;20044;-71
2023/03/05 06:15:35;;;;;;;6.23;1.23;;;2.50;99.90;;;;;;5075111;28;20040;-71
2023/03/05 06:18:01;;;;;;;2.60;1.37;;;2.50;99.90;;;;;;5059583;28;20044;-71
2023/03/05 06:20:27;;;;;;;4.43;1.00;;;2.50;99.90;;;;;;5048095;28;20566;-71
2023/03/05 06:22:53;;;;;;;3.23;1.20;;;2.50;99.90;;;;;;5055135;28;20051;-70
2023/03/05 06:25:19;;;;;;;3.60;1.00;;;2.50;99.90;;;;;;5075483;28;20135;-69
2023/03/05 06:27:45;;;;;;;2.20;1.13;;;2.60;99.90;;;;;;5073707;28;20071;-71
2023/03/05 06:30:11;;;;;;;4.53;1.40;;;2.60;99.90;;;;;;5040951;28;20131;-72
2023/03/05 06:32:37;;;;;;;3.13;1.60;;;2.60;99.90;;;;;;5040323;28;20052;-71
2023/03/05 06:35:03;;;;;;;2.80;1.10;;;2.60;99.90;;;;;;5057900;28;20051;-71
2023/03/05 06:37:29;;;;;;;2.60;0.97;;;2.60;99.90;;;;;;5092971;28;20063;-71
2023/03/05 06:39:55;;;;;;;4.53;1.30;;;2.60;99.90;;;;;;5091031;28;20040;-71
2023/03/05 06:42:20;;;;;;;3.33;1.20;;;2.60;99.90;;;;;;5056248;28;20041;-70
2023/03/05 06:44:46;;;;;;;5.00;1.33;;;2.60;99.90;;;;;;5052551;28;20040;-71
2023/03/05 06:47:13;;;;;;;3.33;1.33;;;2.60;99.90;;;;;;5071226;28;20036;-71
2023/03/05 06:49:39;;;;;;;4.37;1.40;;;2.60;99.90;;;;;;5055237;28;20071;-71
2023/03/05 06:52:08;;;;;;;6.67;1.70;;;2.70;99.90;;;;;;5085048;28;20384;-73
2023/03/05 06:54:35;;;;;;;5.90;1.50;;;2.70;99.90;;;;;;5039735;28;20068;-76
2023/03/05 06:57:00;;;;;;;6.10;1.80;;;2.70;99.90;;;;;;5072520;28;20066;-71
2023/03/05 06:59:26;;;;;;;4.40;1.60;;;2.70;99.90;;;;;;5040458;28;20059;-72
2023/03/05 07:01:52;;;;;;;5.23;1.40;;;2.70;99.90;;;;;;5070347;28;20044;-71
2023/03/05 07:04:17;;;;;;;5.50;1.50;;;2.70;99.90;;;;;;5054259;28;20147;-71
2023/03/05 07:06:43;;;;;;;10.13;1.60;;;2.70;99.90;;;;;;5054128;28;20053;-71
2023/03/05 07:09:14;;;;;;;8.87;2.03;;;2.80;99.90;;;;;;5050006;28;20036;-71
2023/03/05 07:11:40;;;;;;;4.87;1.60;;;2.80;99.90;;;;;;5070494;28;20058;-71
2023/03/05 07:14:05;;;;;;;4.50;1.43;;;2.80;99.90;;;;;;5072565;28;20040;-71
2023/03/05 07:16:32;;;;;;;3.80;1.57;;;2.90;99.90;;;;;;5090827;28;20067;-71
2023/03/05 07:19:01;;;;;;;5.37;1.80;;;2.90;99.90;;;;;;5071250;28;20066;-71
2023/03/05 07:21:29;;;;;;;4.33;1.50;;;2.90;99.90;;;;;;5091415;28;20048;-71
2023/03/05 07:23:57;;;;;;;4.47;1.40;;;3.00;99.90;;;;;;5073999;28;20471;-71
2023/03/05 07:26:24;;;;;;;5.40;1.57;;;3.00;99.90;;;;;;5090739;28;20438;-71
2023/03/05 07:28:49;;;;;;;3.10;1.70;;;3.00;99.90;;;;;;5072693;28;20069;-72
2023/03/05 07:31:18;;;;;;;8.33;2.73;;;3.10;99.90;;;;;;5033860;28;20032;-72
2023/03/05 07:33:48;;;;;;;6.37;1.83;;;3.10;99.90;;;;;;5072290;28;20056;-72
2023/03/05 07:36:15;;;;;;;6.37;1.47;;;3.20;99.90;;;;;;5074266;28;20057;-72
2023/03/05 07:38:40;;;;;;;6.60;1.97;;;3.20;99.90;;;;;;5069797;28;20055;-72
2023/03/05 07:41:10;;;;;;;6.23;1.83;;;3.20;99.90;;;;;;5052681;28;20044;-72
2023/03/05 07:43:36;;;;;;;5.93;1.53;;;3.30;99.90;;;;;;5060014;28;20097;-71
2023/03/05 07:46:11;;;;;;;7.27;1.97;;;3.30;99.90;;;;;;5058180;28;20149;-71
2023/03/05 07:48:37;;;;;;;4.60;1.47;;;3.40;99.90;;;;;;5072559;28;20048;-72
2023/03/05 07:51:06;;;;;;;6.70;1.47;;;3.50;99.90;;;;;;5077452;28;20338;-71
2023/03/05 07:53:32;;;;;;;5.17;1.80;;;3.50;99.90;;;;;;5076317;28;20051;-71
2023/03/05 07:55:57;;;;;;;4.47;1.60;;;3.50;99.90;;;;;;5060268;28;20052;-71
2023/03/05 07:58:23;;;;;;;6.97;1.93;;;3.50;99.90;;;;;;5054408;28;20767;-72
2023/03/05 08:00:49;;;;;;;4.80;1.80;;;3.60;99.90;;;;;;5089628;28;20036;-71
2023/03/05 08:03:15;;;;;;;7.90;1.80;;;3.70;99.90;;;;;;5095096;28;20044;-71
2023/03/05 08:05:41;;;;;;;5.90;1.90;;;3.80;99.90;;;;;;5070927;28;20595;-72
2023/03/05 08:08:08;;;;;;;4.43;1.90;;;3.90;99.90;;;;;;5054104;28;20040;-72
2023/03/05 08:10:35;;;;;;;5.47;1.70;;;4.00;99.90;;;;;;5075522;28;20036;-71
2023/03/05 08:13:01;;;;;;;5.77;1.70;;;4.00;99.90;;;;;;5037954;28;20044;-71
2023/03/05 08:15:27;;;;;;;7.00;1.57;;;4.10;99.90;;;;;;5054189;28;20040;-71
2023/03/05 08:17:53;;;;;;;4.50;1.50;;;4.10;99.90;;;;;;5073195;28;20513;-71
2023/03/05 08:20:19;;;;;;;6.00;1.57;;;4.20;99.90;;;;;;5055537;28;20052;-70
2023/03/05 08:22:45;;;;;;;5.17;1.70;;;4.20;99.90;;;;;;5074530;28;20055;-71
2023/03/05 08:25:11;;;;;;;6.40;1.80;;;4.20;99.90;;;;;;5068997;28;20059;-71
2023/03/05 08:27:41;;;;;;;7.63;1.90;;;4.30;99.90;;;;;;5068994;28;20044;-71
2023/03/05 08:30:11;;;;;;;5.10;1.60;;;4.30;99.90;;;;;;5057575;28;20043;-71
2023/03/05 08:32:37;;;;;;;6.00;1.50;;;4.40;99.90;;;;;;5076193;28;20558;-70
2023/03/05 08:35:03;;;;;;;5.47;1.70;;;4.40;99.90;;;;;;5059146;28;20085;-71
2023/03/05 08:37:29;;;;;;;6.13;2.00;;;4.50;99.90;;;;;;5074045;28;20108;-71
2023/03/05 08:39:56;;;;;;;8.10;1.63;;;4.60;99.90;;;;;;5073785;28;20041;-71
2023/03/05 08:42:22;;;;;;;5.13;1.57;;;4.60;99.90;;;;;;5076457;28;20068;-71
2023/03/05 08:44:48;;;;;;;7.23;1.90;;;4.60;99.90;;;;;;5067401;28;20076;-70
2023/03/05 08:47:14;;;;;;;7.10;1.63;;;4.70;99.90;;;;;;5073433;28;20039;-71
2023/03/05 08:49:39;;;;;;;3.47;1.57;;;4.70;99.90;;;;;;5093915;28;20071;-70
2023/03/05 08:52:05;;;;;;;5.93;1.67;;;4.80;99.90;;;;;;5042703;28;20062;-70
2023/03/05 08:54:32;;;;;;;5.37;1.63;;;4.70;99.90;;;;;;5059315;28;20044;-71
2023/03/05 08:56:58;;;;;;;5.83;1.77;;;4.70;99.90;;;;;;5087752;28;20039;-71
2023/03/05 08:59:24;;;;;;;4.47;1.50;;;4.80;99.90;;;;;;5091530;28;20062;-71
2023/03/05 09:01:49;;;;;;;8.17;2.00;;;4.80;99.90;;;;;;5051081;28;20059;-70
2023/03/05 09:04:15;;;;;;;10.00;2.07;;;4.80;99.90;;;;;;5075035;28;20043;-70
2023/03/05 09:06:41;;;;;;;5.70;1.70;;;4.80;99.90;;;;;;5073639;28;20042;-70
2023/03/05 09:09:08;;;;;;;6.57;1.60;;;4.90;99.90;;;;;;5059068;28;20425;-70
2023/03/05 09:11:35;;;;;;;6.40;1.50;;;5.00;99.90;;;;;;5059411;28;20059;-70
2023/03/05 09:14:05;;;;;;;5.03;1.43;;;5.10;99.90;;;;;;5069071;28;20130;-70
2023/03/05 09:16:31;;;;;;;6.20;1.70;;;5.20;99.90;;;;;;5059310;28;20399;-70
2023/03/05 09:18:58;;;;;;;4.50;1.40;;;5.30;99.90;;;;;;5093385;28;20040;-70
2023/03/05 09:21:23;;;;;;;8.77;1.73;;;5.40;99.90;;;;;;5090992;28;20040;-69
2023/03/05 09:23:49;;;;;;;4.90;2.10;;;5.50;99.90;;;;;;5093668;28;20101;-70
2023/03/05 09:26:18;;;;;;;6.50;1.47;;;5.50;99.90;;;;;;5052860;28;20050;-70
2023/03/05 09:28:44;;;;;;;5.27;1.50;;;5.60;99.90;;;;;;5070135;28;20099;-70
2023/03/05 09:31:10;;;;;;;7.67;1.70;;;5.70;99.90;;;;;;5070289;28;20043;-70
2023/03/05 09:33:37;;;;;;;6.80;2.10;;;5.80;99.90;;;;;;5076377;28;20093;-70
2023/03/05 09:36:04;;;;;;;4.40;1.50;;;5.80;99.90;;;;;;5074251;28;20108;-70
2023/03/05 09:38:30;;;;;;;2.40;1.30;;;5.80;99.90;;;;;;5093588;28;20067;-70
2023/03/05 09:41:06;;;;;;;9.63;1.57;;;5.90;99.90;;;;;;5093136;28;20040;-70
2023/03/05 09:43:41;;;;;;;8.70;1.50;;;5.90;99.90;;;;;;5070878;28;20054;-70
2023/03/05 09:46:25;;;;;;;7.60;1.70;;;5.90;99.90;;;;;;5073668;28;20043;-70
2023/03/05 09:49:06;;;;;;;7.73;1.80;;;5.90;99.90;;;;;;5073151;28;20036;-69
2023/03/05 09:51:37;;;;;;;7.10;1.48;;;6.10;99.90;;;;;;5091709;28;20090;-70
2023/03/05 09:54:10;;;;;;;5.57;1.43;;;6.10;99.90;;;;;;5092584;28;20458;-70
2023/03/05 09:56:41;;;;;;;6.87;1.60;;;6.20;99.90;;;;;;5072887;28;20047;-70
2023/03/05 09:59:28;;;;;;;7.00;1.47;;;6.30;99.90;;;;;;5072719;28;20204;-70
2023/03/05 10:02:24;;;;;;;3.87;1.00;;;6.30;99.90;;;;;;5065627;28;20374;-70
2023/03/05 10:04:54;;;;;;;6.80;1.47;;;6.50;99.90;;;;;;5056080;28;20140;-69
2023/03/05 10:07:42;;;;;;;4.10;1.10;;;6.50;99.90;;;;;;5072118;28;20056;-70
2023/03/05 10:10:41;;;;;;;4.73;1.30;;;6.40;99.90;;;;;;5072961;28;20137;-69
2023/03/05 10:13:44;;;;;;;7.13;1.30;;;6.40;99.90;;;;;;5068191;28;20063;-70
2023/03/05 10:17:00;;;;;;;4.28;1.20;;;6.30;99.90;;;;;;5069516;28;20063;-70
2023/03/05 10:19:44;;;;;;;7.63;1.77;;;5.90;99.90;;;;;;5047485;28;20049;-70
2023/03/05 10:22:20;;;;;;;5.03;1.00;;;5.40;99.90;;;;;;5062607;28;20048;-70
2023/03/05 10:25:05;;;;;;;2.93;0.90;;;5.30;99.90;;;;;;5086927;28;20043;-69
2023/03/05 10:27:54;;;;;;;2.43;0.70;;;5.30;99.90;;;;;;5090254;28;20091;-70
2023/03/05 10:30:25;;;;;;;1.97;0.67;;;5.10;99.90;;;;;;5072370;28;20052;-69
2023/03/05 10:33:29;;;;;;;3.92;0.70;;;5.10;99.90;;;;;;5090695;28;20036;-70
2023/03/05 10:36:10;;;;;;;1.10;0.70;;;5.10;99.90;;;;;;5090682;28;20658;-70
2023/03/05 10:39:04;;;;;;;4.80;0.70;;;5.00;99.90;;;;;;5067575;28;20144;-71
2023/03/05 10:42:14;;;;;;;3.27;0.50;;;5.10;99.90;;;;;;5055833;28;20063;-70
2023/03/05 10:45:12;;;;;;;1.37;0.40;;;5.10;99.90;;;;;;5053986;28;20663;-70
2023/03/05 10:47:52;;;;;;;0.73;0.60;;;5.30;99.90;;;;;;5087200;28;20084;-71
2023/03/05 10:50:21;;;;;;;3.90;0.77;;;5.30;99.90;;;;;;5085408;28;20041;-69
2023/03/05 10:53:05;;;;;;;2.00;0.50;;;5.50;99.90;;;;;;5089341;28;20044;-70
2023/03/05 10:55:31;;;;;;;1.10;0.53;;;5.70;99.90;;;;;;5056361;28;20531;-71
2023/03/05 10:57:56;;;;;;;4.17;1.10;;;5.80;99.90;;;;;;5092486;28;20059;-69
2023/03/05 11:00:25;;;;;;;3.40;0.90;;;5.90;99.90;;;;;;5040354;28;20040;-69
2023/03/05 11:03:00;;;;;;;3.77;1.00;;;5.80;99.90;;;;;;5069322;28;20072;-69
2023/03/05 11:05:40;;;;;;;2.87;0.90;;;5.90;99.90;;;;;;5087947;28;20028;-70
2023/03/05 11:08:30;;;;;;;2.87;0.73;;;5.90;99.90;;;;;;5070842;28;20062;-70
2023/03/05 11:11:07;;;;;;;2.67;0.80;;;6.00;99.90;;;;;;5075907;28;20043;-69
2023/03/05 11:13:37;;;;;;;2.73;0.83;;;6.00;99.90;;;;;;5074233;28;20071;-69
2023/03/05 11:16:05;;;;;;;4.97;0.83;;;6.00;99.90;;;;;;5075389;28;20051;-69
2023/03/05 11:18:36;;;;;;;4.53;1.20;;;6.00;99.90;;;;;;5095677;28;20050;-70
2023/03/05 11:21:09;;;;;;;4.80;1.10;;;6.10;99.90;;;;;;5062309;28;20560;-70
2023/03/05 11:23:35;;;;;;;3.53;1.10;;;6.10;99.90;;;;;;5094890;28;20768;-70
2023/03/05 11:26:12;;;;;;;3.77;1.10;;;6.20;99.90;;;;;;5078089;28;20439;-70
2023/03/05 11:28:57;;;;;;;2.73;1.33;;;6.30;99.90;;;;;;5096269;28;20052;-70
2023/03/05 11:31:29;;;;;;;2.70;0.90;;;6.50;99.90;;;;;;5095534;28;20077;-71
2023/03/05 11:34:00;;;;;;;4.47;1.23;;;6.70;99.90;;;;;;5078132;28;20044;-70
2023/03/05 11:36:34;;;;;;;4.13;1.10;;;6.80;99.90;;;;;;5059064;28;20063;-70
2023/03/05 11:39:06;;;;;;;5.30;1.23;;;7.00;99.90;;;;;;5095292;28;20048;-70
2023/03/05 11:41:46;;;;;;;2.05;0.80;;;7.10;99.90;;;;;;5095703;28;20110;-70
2023/03/05 11:44:16;;;;;;;5.47;1.20;;;7.20;99.90;;;;;;5069653;28;20048;-70
2023/03/05 11:46:46;;;;;;;4.97;1.43;;;7.30;99.90;;;;;;5073342;28;20048;-70
2023/03/05 11:49:17;;;;;;;2.70;1.10;;;7.40;99.90;;;;;;5088095;28;20047;-71
2023/03/05 11:51:57;;;;;;;1.27;0.75;;;7.60;99.90;;;;;;5092334;28;20418;-70
2023/03/05 11:54:47;;;;;;;4.47;1.20;;;7.60;99.90;;;;;;5077068;28;20089;-71
2023/03/05 11:57:15;;;;;;;3.60;1.60;;;7.70;99.90;;;;;;5017318;28;20075;-71
2023/03/05 11:59:42;;;;;;;5.60;1.10;;;7.60;99.90;;;;;;5095977;28;20512;-71
2023/03/05 12:02:25;;;;;;;2.93;1.23;;;7.60;99.90;;;;;;5074493;28;20043;-70
2023/03/05 12:04:51;;;;;;;3.67;0.80;;;7.50;99.90;;;;;;5076900;28;20064;-71
2023/03/05 12:07:28;;;;;;;4.13;1.20;;;7.30;99.90;;;;;;5077920;28;20051;-70
2023/03/05 12:09:54;;;;;;;3.20;0.80;;;7.20;99.90;;;;;;5076137;28;20047;-71
2023/03/05 12:12:38;;;;;;;3.70;1.10;;;7.00;99.90;;;;;;5077712;28;20043;-71
2023/03/05 12:15:07;;;;;;;6.23;0.83;;;7.10;99.90;;;;;;5052739;28;20052;-72
2023/03/05 12:17:43;;;;;;;3.37;1.70;;;7.30;99.90;;;;;;5094749;28;20586;-71
2023/03/05 12:20:32;;;;;;;2.17;1.10;;;7.30;99.90;;;;;;5056787;28;20416;-71
2023/03/05 12:22:58;;;;;;;2.60;0.80;;;7.50;99.90;;;;;;5083556;28;20095;-71
2023/03/05 12:25:27;;;;;;;2.77;0.70;;;7.50;99.90;;;;;;5095734;28;20035;-71
2023/03/05 12:27:53;;;;;;;2.00;0.80;;;7.70;99.90;;;;;;5095019;28;20047;-71
2023/03/05 12:30:34;;;;;;;3.13;0.77;;;7.70;99.90;;;;;;5056209;28;20064;-71
2023/03/05 12:33:01;;;;;;;3.80;0.90;;;7.90;99.90;;;;;;5091404;28;20094;-70
2023/03/05 12:35:35;;;;;;;2.70;0.90;;;7.90;99.90;;;;;;5076100;28;20556;-71
2023/03/05 12:38:29;;;;;;;4.23;0.70;;;7.80;99.90;;;;;;5051520;28;20047;-71
2023/03/05 12:41:33;;;;;;;2.47;0.93;;;7.70;99.90;;;;;;5049429;28;20137;-70
2023/03/05 12:44:05;;;;;;;4.73;0.90;;;7.60;99.90;;;;;;4981323;28;20046;-70
2023/03/05 12:46:34;;;;;;;4.00;0.90;;;7.50;99.90;;;;;;4981834;28;20147;-70
2023/03/05 12:49:27;;;;;;;1.97;0.80;;;7.50;99.90;;;;;;5017128;28;20091;-70
2023/03/05 12:51:59;;;;;;;4.20;0.93;;;7.50;99.90;;;;;;5090919;28;20076;-71
2023/03/05 12:54:35;;;;;;;4.67;1.00;;;7.30;99.90;;;;;;5094012;28;20044;-71
2023/03/05 12:57:18;;;;;;;4.13;1.23;;;7.30;99.90;;;;;;5056455;28;20040;-71
2023/03/05 13:00:07;;;;;;;3.33;0.80;;;7.30;99.90;;;;;;5074001;28;20051;-70
2023/03/05 13:02:44;;;;;;;3.90;1.10;;;7.20;99.90;;;;;;5072434;28;20044;-70
2023/03/05 13:05:25;;;;;;;4.90;1.10;;;7.20;99.90;;;;;;5073674;28;20446;-71
2023/03/05 13:07:51;;;;;;;4.37;0.90;;;7.20;99.90;;;;;;5075794;28;20035;-71
2023/03/05 13:10:28;;;;;;;2.87;0.90;;;7.30;99.90;;;;;;5073990;28;20053;-71